sensor_id;sensor_type;location;lat;lon;timestamp;P1;durP1;ratioP1;P2;durP2;ratioP2
18748;SDS011;9503;53.560;10.246;2023-04-03T00:01:49;4.97;;;2.40;;
18748;SDS011;9503;53.560;10.246;2023-04-03T00:04:16;6.07;;;2.80;;
18748;SDS011;9503;53.560;10.246;2023-04-03T00:06:43;6.13;;;2.10;;
18748;SDS011;9503;53.560;10.246;2023-04-03T00:09:09;6.20;;;2.30;;
18748;SDS011;9503;53.560;10.246;2023-04-03T00:11:37;2.50;;;1.80;;
18748;SDS011;9503;53.560;10.246;2023-04-03T00:14:04;8.03;;;2.23;;
18748;SDS011;9503;53.560;10.246;2023-04-03T00:16:31;3.37;;;1.83;;
18748;SDS011;9503;53.560;10.246;2023-04-03T00:18:57;3.80;;;2.20;;
18748;SDS011;9503;53.560;10.246;2023-04-03T00:21:24;9.53;;;2.30;;
18748;SDS011;9503;53.560;10.246;2023-04-03T00:23:51;4.07;;;2.03;;
18748;SDS011;9503;53.560;10.246;2023-04-03T00:26:17;6.20;;;2.20;;
18748;SDS011;9503;53.560;10.246;2023-04-03T00:28:46;4.93;;;2.00;;
18748;SDS011;9503;53.560;10.246;2023-04-03T00:31:13;4.60;;;2.43;;
18748;SDS011;9503;53.560;10.246;2023-04-03T00:33:40;4.97;;;2.37;;
18748;SDS011;9503;53.560;10.246;2023-04-03T00:36:07;11.07;;;2.60;;
18748;SDS011;9503;53.560;10.246;2023-04-03T00:38:35;3.97;;;2.00;;
18748;SDS011;9503;53.560;10.246;2023-04-03T00:41:02;2.20;;;1.80;;
18748;SDS011;9503;53.560;10.246;2023-04-03T00:43:29;5.77;;;2.23;;
18748;SDS011;9503;53.560;10.246;2023-04-03T00:45:57;6.57;;;2.10;;
18748;SDS011;9503;53.560;10.246;2023-04-03T00:48:26;5.83;;;1.80;;
18748;SDS011;9503;53.560;10.246;2023-04-03T00:50:55;7.20;;;2.40;;
18748;SDS011;9503;53.560;10.246;2023-04-03T00:53:24;4.67;;;1.87;;
18748;SDS011;9503;53.560;10.246;2023-04-03T00:55:54;4.97;;;1.70;;
18748;SDS011;9503;53.560;10.246;2023-04-03T00:58:26;6.03;;;2.27;;
18748;SDS011;9503;53.560;10.246;2023-04-03T01:01:00;5.23;;;2.03;;
18748;SDS011;9503;53.560;10.246;2023-04-03T01:03:31;6.83;;;2.10;;
18748;SDS011;9503;53.560;10.246;2023-04-03T01:05:57;4.97;;;1.87;;
18748;SDS011;9503;53.560;10.246;2023-04-03T01:08:24;5.67;;;2.10;;
18748;SDS011;9503;53.560;10.246;2023-04-03T01:10:51;2.77;;;1.67;;
18748;SDS011;9503;53.560;10.246;2023-04-03T01:13:19;3.50;;;1.97;;
18748;SDS011;9503;53.560;10.246;2023-04-03T01:15:49;4.67;;;2.10;;
18748;SDS011;9503;53.560;10.246;2023-04-03T01:18:17;5.40;;;2.20;;
18748;SDS011;9503;53.560;10.246;2023-04-03T01:23:49;6.27;;;2.13;;
18748;SDS011;9503;53.560;10.246;2023-04-03T01:26:24;4.80;;;1.63;;
18748;SDS011;9503;53.560;10.246;2023-04-03T01:28:52;5.57;;;2.13;;
18748;SDS011;9503;53.560;10.246;2023-04-03T01:31:20;4.73;;;2.10;;
18748;SDS011;9503;53.560;10.246;2023-04-03T01:33:53;6.23;;;2.27;;
18748;SDS011;9503;53.560;10.246;2023-04-03T01:36:21;5.97;;;1.93;;
18748;SDS011;9503;53.560;10.246;2023-04-03T01:38:49;6.37;;;1.90;;
18748;SDS011;9503;53.560;10.246;2023-04-03T01:41:16;10.97;;;2.77;;
18748;SDS011;9503;53.560;10.246;2023-04-03T01:43:43;4.47;;;2.00;;
18748;SDS011;9503;53.560;10.246;2023-04-03T01:46:10;4.80;;;2.60;;
18748;SDS011;9503;53.560;10.246;2023-04-03T01:48:36;6.93;;;2.20;;
18748;SDS011;9503;53.560;10.246;2023-04-03T01:51:05;4.13;;;2.37;;
18748;SDS011;9503;53.560;10.246;2023-04-03T01:53:31;8.20;;;2.67;;
18748;SDS011;9503;53.560;10.246;2023-04-03T01:55:58;8.10;;;2.33;;
18748;SDS011;9503;53.560;10.246;2023-04-03T01:58:25;4.93;;;2.07;;
18748;SDS011;9503;53.560;10.246;2023-04-03T02:00:52;8.27;;;2.57;;
18748;SDS011;9503;53.560;10.246;2023-04-03T02:03:19;5.63;;;2.30;;
18748;SDS011;9503;53.560;10.246;2023-04-03T02:05:46;6.00;;;2.30;;
18748;SDS011;9503;53.560;10.246;2023-04-03T02:08:14;4.80;;;2.30;;
18748;SDS011;9503;53.560;10.246;2023-04-03T02:10:43;5.70;;;2.30;;
18748;SDS011;9503;53.560;10.246;2023-04-03T02:13:09;6.60;;;2.10;;
18748;SDS011;9503;53.560;10.246;2023-04-03T02:15:37;3.47;;;2.20;;
18748;SDS011;9503;53.560;10.246;2023-04-03T02:18:04;7.90;;;2.27;;
18748;SDS011;9503;53.560;10.246;2023-04-03T02:20:31;4.17;;;2.53;;
18748;SDS011;9503;53.560;10.246;2023-04-03T02:22:58;8.23;;;2.20;;
18748;SDS011;9503;53.560;10.246;2023-04-03T02:25:27;6.70;;;2.20;;
18748;SDS011;9503;53.560;10.246;2023-04-03T02:27:56;5.80;;;2.10;;
18748;SDS011;9503;53.560;10.246;2023-04-03T02:30:23;8.50;;;3.47;;
18748;SDS011;9503;53.560;10.246;2023-04-03T02:32:50;7.40;;;2.47;;
18748;SDS011;9503;53.560;10.246;2023-04-03T02:35:17;8.23;;;3.03;;
18748;SDS011;9503;53.560;10.246;2023-04-03T02:37:45;5.30;;;2.20;;
18748;SDS011;9503;53.560;10.246;2023-04-03T02:40:12;5.67;;;3.23;;
18748;SDS011;9503;53.560;10.246;2023-04-03T02:42:40;5.60;;;2.70;;
18748;SDS011;9503;53.560;10.246;2023-04-03T02:45:07;7.30;;;2.60;;
18748;SDS011;9503;53.560;10.246;2023-04-03T02:47:34;3.07;;;2.13;;
18748;SDS011;9503;53.560;10.246;2023-04-03T02:50:01;6.30;;;2.07;;
18748;SDS011;9503;53.560;10.246;2023-04-03T02:52:28;3.27;;;2.00;;
18748;SDS011;9503;53.560;10.246;2023-04-03T02:54:54;3.77;;;1.93;;
18748;SDS011;9503;53.560;10.246;2023-04-03T02:57:21;3.93;;;2.10;;
18748;SDS011;9503;53.560;10.246;2023-04-03T02:59:49;4.13;;;2.07;;
18748;SDS011;9503;53.560;10.246;2023-04-03T03:02:15;5.70;;;1.97;;
18748;SDS011;9503;53.560;10.246;2023-04-03T03:04:42;6.87;;;2.20;;
18748;SDS011;9503;53.560;10.246;2023-04-03T03:07:09;7.93;;;3.47;;
18748;SDS011;9503;53.560;10.246;2023-04-03T03:09:35;8.33;;;2.20;;
18748;SDS011;9503;53.560;10.246;2023-04-03T03:12:02;5.57;;;2.47;;
18748;SDS011;9503;53.560;10.246;2023-04-03T03:14:29;4.93;;;1.80;;
18748;SDS011;9503;53.560;10.246;2023-04-03T03:16:57;6.53;;;2.53;;
18748;SDS011;9503;53.560;10.246;2023-04-03T03:19:24;3.87;;;1.73;;
18748;SDS011;9503;53.560;10.246;2023-04-03T03:21:50;5.27;;;2.13;;
18748;SDS011;9503;53.560;10.246;2023-04-03T03:24:17;10.97;;;2.60;;
18748;SDS011;9503;53.560;10.246;2023-04-03T03:26:44;6.90;;;3.27;;
18748;SDS011;9503;53.560;10.246;2023-04-03T03:29:10;19.57;;;6.53;;
18748;SDS011;9503;53.560;10.246;2023-04-03T03:31:37;46.87;;;15.03;;
18748;SDS011;9503;53.560;10.246;2023-04-03T03:34:05;9.67;;;3.87;;
18748;SDS011;9503;53.560;10.246;2023-04-03T03:36:32;6.53;;;2.97;;
18748;SDS011;9503;53.560;10.246;2023-04-03T03:38:58;8.57;;;3.50;;
18748;SDS011;9503;53.560;10.246;2023-04-03T03:41:25;7.30;;;2.77;;
18748;SDS011;9503;53.560;10.246;2023-04-03T03:43:52;10.77;;;3.23;;
18748;SDS011;9503;53.560;10.246;2023-04-03T03:46:18;7.07;;;3.07;;
18748;SDS011;9503;53.560;10.246;2023-04-03T03:48:45;10.30;;;3.20;;
18748;SDS011;9503;53.560;10.246;2023-04-03T03:51:13;5.07;;;2.80;;
18748;SDS011;9503;53.560;10.246;2023-04-03T03:53:40;7.77;;;3.27;;
18748;SDS011;9503;53.560;10.246;2023-04-03T03:56:06;6.83;;;2.87;;
18748;SDS011;9503;53.560;10.246;2023-04-03T03:58:33;6.00;;;3.33;;
18748;SDS011;9503;53.560;10.246;2023-04-03T04:01:00;6.53;;;2.77;;
18748;SDS011;9503;53.560;10.246;2023-04-03T04:03:28;6.03;;;2.27;;
18748;SDS011;9503;53.560;10.246;2023-04-03T04:05:54;6.07;;;2.40;;
18748;SDS011;9503;53.560;10.246;2023-04-03T04:08:22;6.90;;;2.63;;
18748;SDS011;9503;53.560;10.246;2023-04-03T04:10:50;11.03;;;3.27;;
18748;SDS011;9503;53.560;10.246;2023-04-03T04:13:17;5.63;;;2.80;;
18748;SDS011;9503;53.560;10.246;2023-04-03T04:15:44;6.17;;;2.87;;
18748;SDS011;9503;53.560;10.246;2023-04-03T04:18:10;7.50;;;3.47;;
18748;SDS011;9503;53.560;10.246;2023-04-03T04:20:37;12.27;;;3.77;;
18748;SDS011;9503;53.560;10.246;2023-04-03T04:23:04;8.77;;;3.87;;
18748;SDS011;9503;53.560;10.246;2023-04-03T04:25:32;10.57;;;4.10;;
18748;SDS011;9503;53.560;10.246;2023-04-03T04:27:58;11.33;;;4.20;;
18748;SDS011;9503;53.560;10.246;2023-04-03T04:30:25;13.67;;;4.93;;
18748;SDS011;9503;53.560;10.246;2023-04-03T04:32:52;8.60;;;4.67;;
18748;SDS011;9503;53.560;10.246;2023-04-03T04:35:19;8.03;;;4.73;;
18748;SDS011;9503;53.560;10.246;2023-04-03T04:37:46;10.03;;;4.43;;
18748;SDS011;9503;53.560;10.246;2023-04-03T04:40:12;12.97;;;5.10;;
18748;SDS011;9503;53.560;10.246;2023-04-03T04:42:41;10.40;;;5.00;;
18748;SDS011;9503;53.560;10.246;2023-04-03T04:45:07;11.93;;;5.30;;
18748;SDS011;9503;53.560;10.246;2023-04-03T04:47:34;12.57;;;5.13;;
18748;SDS011;9503;53.560;10.246;2023-04-03T04:50:01;13.67;;;6.17;;
18748;SDS011;9503;53.560;10.246;2023-04-03T04:52:28;13.40;;;5.30;;
18748;SDS011;9503;53.560;10.246;2023-04-03T04:54:55;10.63;;;5.70;;
18748;SDS011;9503;53.560;10.246;2023-04-03T04:57:22;10.03;;;5.80;;
18748;SDS011;9503;53.560;10.246;2023-04-03T04:59:50;20.27;;;6.50;;
18748;SDS011;9503;53.560;10.246;2023-04-03T05:02:16;18.13;;;7.10;;
18748;SDS011;9503;53.560;10.246;2023-04-03T05:04:43;11.90;;;5.93;;
18748;SDS011;9503;53.560;10.246;2023-04-03T05:07:09;13.23;;;6.03;;
18748;SDS011;9503;53.560;10.246;2023-04-03T05:09:36;16.50;;;6.47;;
18748;SDS011;9503;53.560;10.246;2023-04-03T05:12:03;17.37;;;6.80;;
18748;SDS011;9503;53.560;10.246;2023-04-03T05:14:30;13.80;;;6.33;;
18748;SDS011;9503;53.560;10.246;2023-04-03T05:16:58;16.60;;;7.03;;
18748;SDS011;9503;53.560;10.246;2023-04-03T05:19:24;15.43;;;6.87;;
18748;SDS011;9503;53.560;10.246;2023-04-03T05:21:51;13.80;;;6.60;;
18748;SDS011;9503;53.560;10.246;2023-04-03T05:24:18;10.27;;;6.30;;
18748;SDS011;9503;53.560;10.246;2023-04-03T05:26:44;13.27;;;6.37;;
18748;SDS011;9503;53.560;10.246;2023-04-03T05:29:12;12.57;;;6.43;;
18748;SDS011;9503;53.560;10.246;2023-04-03T05:31:38;19.13;;;8.40;;
18748;SDS011;9503;53.560;10.246;2023-04-03T05:34:06;18.63;;;9.57;;
18748;SDS011;9503;53.560;10.246;2023-04-03T05:36:33;17.43;;;10.00;;
18748;SDS011;9503;53.560;10.246;2023-04-03T05:39:00;17.50;;;9.47;;
18748;SDS011;9503;53.560;10.246;2023-04-03T05:41:26;19.67;;;8.33;;
18748;SDS011;9503;53.560;10.246;2023-04-03T05:43:53;20.10;;;7.97;;
18748;SDS011;9503;53.560;10.246;2023-04-03T05:46:20;15.73;;;7.60;;
18748;SDS011;9503;53.560;10.246;2023-04-03T05:48:47;15.87;;;7.27;;
18748;SDS011;9503;53.560;10.246;2023-04-03T05:51:15;11.43;;;7.33;;
18748;SDS011;9503;53.560;10.246;2023-04-03T05:53:44;11.70;;;6.50;;
18748;SDS011;9503;53.560;10.246;2023-04-03T05:56:11;12.47;;;5.67;;
18748;SDS011;9503;53.560;10.246;2023-04-03T05:58:38;13.43;;;5.47;;
18748;SDS011;9503;53.560;10.246;2023-04-03T06:01:05;13.83;;;5.60;;
18748;SDS011;9503;53.560;10.246;2023-04-03T06:03:32;13.90;;;5.47;;
18748;SDS011;9503;53.560;10.246;2023-04-03T06:06:00;13.40;;;5.43;;
18748;SDS011;9503;53.560;10.246;2023-04-03T06:08:30;13.83;;;5.63;;
18748;SDS011;9503;53.560;10.246;2023-04-03T06:10:57;10.47;;;5.60;;
18748;SDS011;9503;53.560;10.246;2023-04-03T06:13:24;8.47;;;5.60;;
18748;SDS011;9503;53.560;10.246;2023-04-03T06:15:51;9.50;;;5.60;;
18748;SDS011;9503;53.560;10.246;2023-04-03T06:18:17;9.70;;;5.17;;
18748;SDS011;9503;53.560;10.246;2023-04-03T06:20:45;9.10;;;4.17;;
18748;SDS011;9503;53.560;10.246;2023-04-03T06:23:12;6.87;;;3.23;;
18748;SDS011;9503;53.560;10.246;2023-04-03T06:25:39;7.73;;;3.10;;
18748;SDS011;9503;53.560;10.246;2023-04-03T06:28:08;6.90;;;3.57;;
18748;SDS011;9503;53.560;10.246;2023-04-03T06:30:35;5.90;;;3.08;;
18748;SDS011;9503;53.560;10.246;2023-04-03T06:33:02;6.27;;;2.53;;
18748;SDS011;9503;53.560;10.246;2023-04-03T06:35:29;6.27;;;3.10;;
18748;SDS011;9503;53.560;10.246;2023-04-03T06:37:56;9.77;;;3.20;;
18748;SDS011;9503;53.560;10.246;2023-04-03T06:40:24;5.70;;;2.70;;
18748;SDS011;9503;53.560;10.246;2023-04-03T06:42:52;7.40;;;2.97;;
18748;SDS011;9503;53.560;10.246;2023-04-03T06:45:19;4.97;;;2.93;;
18748;SDS011;9503;53.560;10.246;2023-04-03T06:47:46;11.67;;;2.77;;
18748;SDS011;9503;53.560;10.246;2023-04-03T06:50:13;7.60;;;2.90;;
18748;SDS011;9503;53.560;10.246;2023-04-03T06:52:40;4.87;;;2.60;;
18748;SDS011;9503;53.560;10.246;2023-04-03T06:55:08;4.67;;;2.40;;
18748;SDS011;9503;53.560;10.246;2023-04-03T06:57:35;6.50;;;3.17;;
18748;SDS011;9503;53.560;10.246;2023-04-03T07:00:04;5.67;;;3.00;;
18748;SDS011;9503;53.560;10.246;2023-04-03T07:02:34;5.60;;;2.17;;
18748;SDS011;9503;53.560;10.246;2023-04-03T07:05:01;2.67;;;1.90;;
18748;SDS011;9503;53.560;10.246;2023-04-03T07:07:28;3.30;;;2.00;;
18748;SDS011;9503;53.560;10.246;2023-04-03T07:09:55;5.53;;;2.97;;
18748;SDS011;9503;53.560;10.246;2023-04-03T07:12:22;3.07;;;2.00;;
18748;SDS011;9503;53.560;10.246;2023-04-03T07:14:48;4.83;;;2.20;;
18748;SDS011;9503;53.560;10.246;2023-04-03T07:17:16;3.67;;;1.97;;
18748;SDS011;9503;53.560;10.246;2023-04-03T07:19:43;6.23;;;2.10;;
18748;SDS011;9503;53.560;10.246;2023-04-03T07:22:10;2.20;;;1.87;;
18748;SDS011;9503;53.560;10.246;2023-04-03T07:24:37;6.03;;;2.10;;
18748;SDS011;9503;53.560;10.246;2023-04-03T07:27:04;6.40;;;1.90;;
18748;SDS011;9503;53.560;10.246;2023-04-03T07:29:30;5.87;;;1.93;;
18748;SDS011;9503;53.560;10.246;2023-04-03T07:31:57;5.17;;;1.97;;
18748;SDS011;9503;53.560;10.246;2023-04-03T07:34:25;3.70;;;1.83;;
18748;SDS011;9503;53.560;10.246;2023-04-03T07:36:52;5.07;;;1.80;;
18748;SDS011;9503;53.560;10.246;2023-04-03T07:39:19;4.97;;;2.10;;
18748;SDS011;9503;53.560;10.246;2023-04-03T07:41:45;3.87;;;1.70;;
18748;SDS011;9503;53.560;10.246;2023-04-03T07:44:12;5.00;;;1.67;;
18748;SDS011;9503;53.560;10.246;2023-04-03T07:46:39;4.40;;;1.67;;
18748;SDS011;9503;53.560;10.246;2023-04-03T07:49:06;5.23;;;1.50;;
18748;SDS011;9503;53.560;10.246;2023-04-03T07:51:34;7.20;;;1.63;;
18748;SDS011;9503;53.560;10.246;2023-04-03T07:54:00;4.00;;;1.40;;
18748;SDS011;9503;53.560;10.246;2023-04-03T07:56:27;2.30;;;1.50;;
18748;SDS011;9503;53.560;10.246;2023-04-03T07:58:54;5.07;;;1.80;;
18748;SDS011;9503;53.560;10.246;2023-04-03T08:01:20;6.63;;;1.60;;
18748;SDS011;9503;53.560;10.246;2023-04-03T08:03:47;4.07;;;2.00;;
18748;SDS011;9503;53.560;10.246;2023-04-03T08:06:14;3.17;;;1.60;;
18748;SDS011;9503;53.560;10.246;2023-04-03T08:08:42;4.30;;;1.40;;
18748;SDS011;9503;53.560;10.246;2023-04-03T08:11:09;3.07;;;1.20;;
18748;SDS011;9503;53.560;10.246;2023-04-03T08:13:37;5.53;;;1.50;;
18748;SDS011;9503;53.560;10.246;2023-04-03T08:16:07;3.47;;;1.07;;
18748;SDS011;9503;53.560;10.246;2023-04-03T08:18:34;2.73;;;1.27;;
18748;SDS011;9503;53.560;10.246;2023-04-03T08:21:04;5.37;;;2.30;;
18748;SDS011;9503;53.560;10.246;2023-04-03T08:23:32;5.97;;;2.30;;
18748;SDS011;9503;53.560;10.246;2023-04-03T08:26:00;4.30;;;2.20;;
18748;SDS011;9503;53.560;10.246;2023-04-03T08:28:31;1.80;;;1.37;;
18748;SDS011;9503;53.560;10.246;2023-04-03T08:31:01;2.63;;;1.60;;
18748;SDS011;9503;53.560;10.246;2023-04-03T08:33:30;4.20;;;1.43;;
18748;SDS011;9503;53.560;10.246;2023-04-03T08:35:57;7.07;;;1.30;;
18748;SDS011;9503;53.560;10.246;2023-04-03T08:38:23;3.37;;;1.43;;
18748;SDS011;9503;53.560;10.246;2023-04-03T08:41:00;2.57;;;1.40;;
18748;SDS011;9503;53.560;10.246;2023-04-03T08:43:31;2.40;;;1.50;;
18748;SDS011;9503;53.560;10.246;2023-04-03T08:46:05;2.97;;;1.37;;
18748;SDS011;9503;53.560;10.246;2023-04-03T08:48:38;1.50;;;1.10;;
18748;SDS011;9503;53.560;10.246;2023-04-03T08:51:09;2.27;;;1.17;;
18748;SDS011;9503;53.560;10.246;2023-04-03T08:53:40;3.93;;;2.10;;
18748;SDS011;9503;53.560;10.246;2023-04-03T08:56:12;1.30;;;1.00;;
18748;SDS011;9503;53.560;10.246;2023-04-03T08:58:44;3.57;;;1.40;;
18748;SDS011;9503;53.560;10.246;2023-04-03T09:01:17;1.20;;;0.97;;
18748;SDS011;9503;53.560;10.246;2023-04-03T09:03:46;1.67;;;0.90;;
18748;SDS011;9503;53.560;10.246;2023-04-03T09:06:13;3.60;;;1.00;;
18748;SDS011;9503;53.560;10.246;2023-04-03T09:08:43;1.30;;;1.00;;
18748;SDS011;9503;53.560;10.246;2023-04-03T09:11:15;1.53;;;1.30;;
18748;SDS011;9503;53.560;10.246;2023-04-03T09:13:48;0.93;;;0.80;;
18748;SDS011;9503;53.560;10.246;2023-04-03T09:16:21;2.70;;;1.30;;
18748;SDS011;9503;53.560;10.246;2023-04-03T09:19:01;6.80;;;1.93;;
18748;SDS011;9503;53.560;10.246;2023-04-03T09:21:34;2.87;;;1.37;;
18748;SDS011;9503;53.560;10.246;2023-04-03T09:24:04;1.67;;;1.10;;
18748;SDS011;9503;53.560;10.246;2023-04-03T09:26:35;4.50;;;1.43;;
18748;SDS011;9503;53.560;10.246;2023-04-03T09:29:07;2.80;;;1.23;;
18748;SDS011;9503;53.560;10.246;2023-04-03T09:31:36;1.83;;;1.27;;
18748;SDS011;9503;53.560;10.246;2023-04-03T09:34:06;4.77;;;1.03;;
18748;SDS011;9503;53.560;10.246;2023-04-03T09:36:40;3.17;;;1.57;;
18748;SDS011;9503;53.560;10.246;2023-04-03T09:39:10;2.53;;;1.20;;
18748;SDS011;9503;53.560;10.246;2023-04-03T09:41:41;0.93;;;0.90;;
18748;SDS011;9503;53.560;10.246;2023-04-03T09:44:19;3.40;;;1.30;;
18748;SDS011;9503;53.560;10.246;2023-04-03T09:46:47;1.77;;;0.93;;
18748;SDS011;9503;53.560;10.246;2023-04-03T09:49:15;4.07;;;1.00;;
18748;SDS011;9503;53.560;10.246;2023-04-03T09:51:43;2.07;;;1.10;;
18748;SDS011;9503;53.560;10.246;2023-04-03T09:54:30;4.20;;;1.40;;
18748;SDS011;9503;53.560;10.246;2023-04-03T09:57:01;2.87;;;1.20;;
18748;SDS011;9503;53.560;10.246;2023-04-03T09:59:32;3.53;;;1.40;;
18748;SDS011;9503;53.560;10.246;2023-04-03T10:01:59;2.40;;;1.07;;
18748;SDS011;9503;53.560;10.246;2023-04-03T10:04:36;1.50;;;1.40;;
18748;SDS011;9503;53.560;10.246;2023-04-03T10:07:04;1.83;;;1.20;;
18748;SDS011;9503;53.560;10.246;2023-04-03T10:09:57;5.83;;;1.97;;
18748;SDS011;9503;53.560;10.246;2023-04-03T10:12:25;1.73;;;0.97;;
18748;SDS011;9503;53.560;10.246;2023-04-03T10:14:55;2.17;;;1.30;;
18748;SDS011;9503;53.560;10.246;2023-04-03T10:17:24;1.40;;;1.30;;
18748;SDS011;9503;53.560;10.246;2023-04-03T10:20:00;2.60;;;1.17;;
18748;SDS011;9503;53.560;10.246;2023-04-03T10:22:36;2.17;;;1.33;;
18748;SDS011;9503;53.560;10.246;2023-04-03T10:25:12;4.03;;;1.13;;
18748;SDS011;9503;53.560;10.246;2023-04-03T10:27:48;1.97;;;1.10;;
18748;SDS011;9503;53.560;10.246;2023-04-03T10:30:28;2.40;;;1.50;;
18748;SDS011;9503;53.560;10.246;2023-04-03T10:33:05;1.43;;;1.17;;
18748;SDS011;9503;53.560;10.246;2023-04-03T10:35:44;1.13;;;1.03;;
18748;SDS011;9503;53.560;10.246;2023-04-03T10:38:23;1.87;;;0.97;;
18748;SDS011;9503;53.560;10.246;2023-04-03T10:40:59;1.87;;;1.40;;
18748;SDS011;9503;53.560;10.246;2023-04-03T10:43:33;1.73;;;1.20;;
18748;SDS011;9503;53.560;10.246;2023-04-03T10:46:06;3.63;;;1.37;;
18748;SDS011;9503;53.560;10.246;2023-04-03T10:48:47;2.00;;;1.43;;
18748;SDS011;9503;53.560;10.246;2023-04-03T10:51:25;2.53;;;1.40;;
18748;SDS011;9503;53.560;10.246;2023-04-03T10:54:03;1.60;;;1.17;;
18748;SDS011;9503;53.560;10.246;2023-04-03T10:56:36;3.63;;;1.20;;
18748;SDS011;9503;53.560;10.246;2023-04-03T10:59:08;2.77;;;1.30;;
18748;SDS011;9503;53.560;10.246;2023-04-03T11:01:44;3.60;;;1.30;;
18748;SDS011;9503;53.560;10.246;2023-04-03T11:04:14;3.30;;;1.20;;
18748;SDS011;9503;53.560;10.246;2023-04-03T11:06:43;1.87;;;1.30;;
18748;SDS011;9503;53.560;10.246;2023-04-03T11:09:18;2.27;;;1.27;;
18748;SDS011;9503;53.560;10.246;2023-04-03T11:11:51;2.63;;;1.17;;
18748;SDS011;9503;53.560;10.246;2023-04-03T11:14:23;1.77;;;1.10;;
18748;SDS011;9503;53.560;10.246;2023-04-03T11:16:59;4.20;;;1.40;;
18748;SDS011;9503;53.560;10.246;2023-04-03T11:19:33;6.43;;;1.30;;
18748;SDS011;9503;53.560;10.246;2023-04-03T11:22:05;4.83;;;1.23;;
18748;SDS011;9503;53.560;10.246;2023-04-03T11:24:39;2.57;;;1.23;;
18748;SDS011;9503;53.560;10.246;2023-04-03T11:27:09;3.73;;;1.30;;
18748;SDS011;9503;53.560;10.246;2023-04-03T11:29:43;1.90;;;1.30;;
18748;SDS011;9503;53.560;10.246;2023-04-03T11:32:19;3.13;;;1.47;;
18748;SDS011;9503;53.560;10.246;2023-04-03T11:34:58;2.20;;;1.00;;
18748;SDS011;9503;53.560;10.246;2023-04-03T11:37:29;3.67;;;1.37;;
18748;SDS011;9503;53.560;10.246;2023-04-03T11:40:04;2.47;;;1.23;;
18748;SDS011;9503;53.560;10.246;2023-04-03T11:42:34;2.50;;;0.90;;
18748;SDS011;9503;53.560;10.246;2023-04-03T11:45:16;2.93;;;1.57;;
18748;SDS011;9503;53.560;10.246;2023-04-03T11:47:56;8.13;;;1.17;;
18748;SDS011;9503;53.560;10.246;2023-04-03T11:50:32;2.23;;;1.20;;
18748;SDS011;9503;53.560;10.246;2023-04-03T11:56:03;1.90;;;1.20;;
18748;SDS011;9503;53.560;10.246;2023-04-03T12:01:44;4.77;;;1.40;;
18748;SDS011;9503;53.560;10.246;2023-04-03T12:04:12;4.50;;;1.27;;
18748;SDS011;9503;53.560;10.246;2023-04-03T12:09:33;3.97;;;1.40;;
18748;SDS011;9503;53.560;10.246;2023-04-03T12:15:26;1.23;;;1.10;;
18748;SDS011;9503;53.560;10.246;2023-04-03T12:21:06;2.40;;;1.20;;
18748;SDS011;9503;53.560;10.246;2023-04-03T12:23:33;2.50;;;1.33;;
18748;SDS011;9503;53.560;10.246;2023-04-03T12:26:06;3.30;;;1.10;;
18748;SDS011;9503;53.560;10.246;2023-04-03T12:28:48;1.97;;;1.13;;
18748;SDS011;9503;53.560;10.246;2023-04-03T12:31:19;1.07;;;1.00;;
18748;SDS011;9503;53.560;10.246;2023-04-03T12:33:56;2.03;;;1.20;;
18748;SDS011;9503;53.560;10.246;2023-04-03T12:36:34;2.80;;;1.10;;
18748;SDS011;9503;53.560;10.246;2023-04-03T12:39:31;2.67;;;1.33;;
18748;SDS011;9503;53.560;10.246;2023-04-03T12:42:11;2.67;;;1.27;;
18748;SDS011;9503;53.560;10.246;2023-04-03T12:44:51;2.40;;;1.17;;
18748;SDS011;9503;53.560;10.246;2023-04-03T12:47:27;4.23;;;1.27;;
18748;SDS011;9503;53.560;10.246;2023-04-03T12:49:58;4.17;;;1.40;;
18748;SDS011;9503;53.560;10.246;2023-04-03T12:52:32;2.50;;;1.17;;
18748;SDS011;9503;53.560;10.246;2023-04-03T12:55:03;1.70;;;1.10;;
18748;SDS011;9503;53.560;10.246;2023-04-03T12:57:35;5.40;;;1.63;;
18748;SDS011;9503;53.560;10.246;2023-04-03T13:02:53;1.30;;;1.03;;
18748;SDS011;9503;53.560;10.246;2023-04-03T13:05:21;2.67;;;1.33;;
18748;SDS011;9503;53.560;10.246;2023-04-03T13:07:49;2.93;;;1.47;;
18748;SDS011;9503;53.560;10.246;2023-04-03T13:10:19;2.87;;;1.17;;
18748;SDS011;9503;53.560;10.246;2023-04-03T13:12:47;7.13;;;2.63;;
18748;SDS011;9503;53.560;10.246;2023-04-03T13:15:16;2.67;;;1.10;;
18748;SDS011;9503;53.560;10.246;2023-04-03T13:17:46;2.13;;;1.00;;
18748;SDS011;9503;53.560;10.246;2023-04-03T13:20:17;2.37;;;1.43;;
18748;SDS011;9503;53.560;10.246;2023-04-03T13:22:48;0.97;;;0.93;;
18748;SDS011;9503;53.560;10.246;2023-04-03T13:25:18;2.70;;;1.10;;
18748;SDS011;9503;53.560;10.246;2023-04-03T13:27:47;1.73;;;1.07;;
18748;SDS011;9503;53.560;10.246;2023-04-03T13:30:21;2.10;;;1.20;;
18748;SDS011;9503;53.560;10.246;2023-04-03T13:32:53;1.53;;;1.00;;
18748;SDS011;9503;53.560;10.246;2023-04-03T13:35:30;2.83;;;1.20;;
18748;SDS011;9503;53.560;10.246;2023-04-03T13:38:00;2.93;;;1.10;;
18748;SDS011;9503;53.560;10.246;2023-04-03T13:40:29;2.07;;;0.97;;
18748;SDS011;9503;53.560;10.246;2023-04-03T13:43:03;1.67;;;1.03;;
18748;SDS011;9503;53.560;10.246;2023-04-03T13:45:34;1.23;;;1.07;;
18748;SDS011;9503;53.560;10.246;2023-04-03T13:48:10;0.93;;;0.90;;
18748;SDS011;9503;53.560;10.246;2023-04-03T13:50:58;1.83;;;0.90;;
18748;SDS011;9503;53.560;10.246;2023-04-03T13:53:27;2.40;;;1.00;;
18748;SDS011;9503;53.560;10.246;2023-04-03T13:55:59;1.70;;;1.00;;
18748;SDS011;9503;53.560;10.246;2023-04-03T13:58:32;1.57;;;0.90;;
18748;SDS011;9503;53.560;10.246;2023-04-03T14:01:06;1.43;;;0.90;;
18748;SDS011;9503;53.560;10.246;2023-04-03T14:03:39;2.77;;;1.27;;
18748;SDS011;9503;53.560;10.246;2023-04-03T14:06:10;1.07;;;0.97;;
18748;SDS011;9503;53.560;10.246;2023-04-03T14:08:38;2.37;;;1.10;;
18748;SDS011;9503;53.560;10.246;2023-04-03T14:11:08;2.40;;;0.97;;
18748;SDS011;9503;53.560;10.246;2023-04-03T14:13:39;1.80;;;1.17;;
18748;SDS011;9503;53.560;10.246;2023-04-03T14:16:06;1.10;;;0.70;;
18748;SDS011;9503;53.560;10.246;2023-04-03T14:18:32;1.77;;;1.37;;
18748;SDS011;9503;53.560;10.246;2023-04-03T14:21:00;3.83;;;1.10;;
18748;SDS011;9503;53.560;10.246;2023-04-03T14:23:27;3.00;;;1.10;;
18748;SDS011;9503;53.560;10.246;2023-04-03T14:25:55;1.30;;;1.17;;
18748;SDS011;9503;53.560;10.246;2023-04-03T14:28:22;1.03;;;0.90;;
18748;SDS011;9503;53.560;10.246;2023-04-03T14:30:50;3.77;;;1.50;;
18748;SDS011;9503;53.560;10.246;2023-04-03T14:33:17;2.27;;;1.10;;
18748;SDS011;9503;53.560;10.246;2023-04-03T14:35:45;0.97;;;0.90;;
18748;SDS011;9503;53.560;10.246;2023-04-03T14:38:20;2.47;;;1.33;;
18748;SDS011;9503;53.560;10.246;2023-04-03T14:40:49;2.47;;;1.07;;
18748;SDS011;9503;53.560;10.246;2023-04-03T14:43:16;2.87;;;1.30;;
18748;SDS011;9503;53.560;10.246;2023-04-03T14:45:43;2.00;;;1.20;;
18748;SDS011;9503;53.560;10.246;2023-04-03T14:48:20;3.47;;;1.30;;
18748;SDS011;9503;53.560;10.246;2023-04-03T14:50:48;2.13;;;1.07;;
18748;SDS011;9503;53.560;10.246;2023-04-03T14:53:18;1.63;;;1.10;;
18748;SDS011;9503;53.560;10.246;2023-04-03T14:55:47;1.30;;;1.20;;
18748;SDS011;9503;53.560;10.246;2023-04-03T14:58:16;3.00;;;1.20;;
18748;SDS011;9503;53.560;10.246;2023-04-03T15:00:44;1.23;;;1.13;;
18748;SDS011;9503;53.560;10.246;2023-04-03T15:03:12;3.67;;;1.40;;
18748;SDS011;9503;53.560;10.246;2023-04-03T15:05:41;3.07;;;1.43;;
18748;SDS011;9503;53.560;10.246;2023-04-03T15:08:13;1.77;;;1.40;;
18748;SDS011;9503;53.560;10.246;2023-04-03T15:10:47;1.93;;;1.13;;
18748;SDS011;9503;53.560;10.246;2023-04-03T15:13:14;3.40;;;1.30;;
18748;SDS011;9503;53.560;10.246;2023-04-03T15:15:41;2.13;;;1.20;;
18748;SDS011;9503;53.560;10.246;2023-04-03T15:18:10;2.43;;;1.37;;
18748;SDS011;9503;53.560;10.246;2023-04-03T15:20:42;3.97;;;1.33;;